sensor_id;sensor_type;location;lat;lon;timestamp;P1;durP1;ratioP1;P2;durP2;ratioP2
41502;SDS011;27237;42.554;22.966;2022-07-29T00:02:07;13.93;;;10.35;;
41502;SDS011;27237;42.554;22.966;2022-07-29T00:04:36;15.68;;;10.02;;
41502;SDS011;27237;42.554;22.966;2022-07-29T00:07:02;18.48;;;10.50;;
41502;SDS011;27237;42.554;22.966;2022-07-29T00:09:29;16.63;;;12.10;;
41502;SDS011;27237;42.554;22.966;2022-07-29T00:11:54;14.05;;;11.18;;
41502;SDS011;27237;42.554;22.966;2022-07-29T00:14:23;17.73;;;11.60;;
41502;SDS011;27237;42.554;22.966;2022-07-29T00:16:48;18.38;;;11.65;;
41502;SDS011;27237;42.554;22.966;2022-07-29T00:19:14;17.95;;;11.68;;
41502;SDS011;27237;42.554;22.966;2022-07-29T00:21:39;15.70;;;11.15;;
41502;SDS011;27237;42.554;22.966;2022-07-29T00:24:05;14.82;;;11.20;;
41502;SDS011;27237;42.554;22.966;2022-07-29T00:26:30;20.42;;;12.18;;
41502;SDS011;27237;42.554;22.966;2022-07-29T00:29:00;14.63;;;11.50;;
41502;SDS011;27237;42.554;22.966;2022-07-29T00:33:52;19.33;;;10.70;;
41502;SDS011;27237;42.554;22.966;2022-07-29T00:36:18;18.77;;;11.02;;
41502;SDS011;27237;42.554;22.966;2022-07-29T00:38:45;18.02;;;11.25;;
41502;SDS011;27237;42.554;22.966;2022-07-29T00:41:15;26.13;;;12.45;;
41502;SDS011;27237;42.554;22.966;2022-07-29T00:43:41;16.25;;;10.70;;
41502;SDS011;27237;42.554;22.966;2022-07-29T00:46:07;18.73;;;11.20;;
41502;SDS011;27237;42.554;22.966;2022-07-29T00:48:33;24.67;;;11.27;;
41502;SDS011;27237;42.554;22.966;2022-07-29T00:50:58;17.23;;;12.02;;
41502;SDS011;27237;42.554;22.966;2022-07-29T00:53:25;25.80;;;11.23;;
41502;SDS011;27237;42.554;22.966;2022-07-29T00:55:50;19.33;;;11.98;;
41502;SDS011;27237;42.554;22.966;2022-07-29T00:58:16;18.42;;;11.57;;
41502;SDS011;27237;42.554;22.966;2022-07-29T01:00:41;25.58;;;12.50;;
41502;SDS011;27237;42.554;22.966;2022-07-29T01:03:07;26.55;;;13.63;;
41502;SDS011;27237;42.554;22.966;2022-07-29T01:05:33;24.30;;;13.07;;
41502;SDS011;27237;42.554;22.966;2022-07-29T01:07:59;14.45;;;11.48;;
41502;SDS011;27237;42.554;22.966;2022-07-29T01:10:26;16.38;;;12.00;;
41502;SDS011;27237;42.554;22.966;2022-07-29T01:12:52;16.38;;;11.02;;
41502;SDS011;27237;42.554;22.966;2022-07-29T01:15:21;20.60;;;13.40;;
41502;SDS011;27237;42.554;22.966;2022-07-29T01:18:01;15.55;;;11.70;;
41502;SDS011;27237;42.554;22.966;2022-07-29T01:23:28;21.80;;;13.02;;
41502;SDS011;27237;42.554;22.966;2022-07-29T01:32:05;23.70;;;13.13;;
41502;SDS011;27237;42.554;22.966;2022-07-29T01:40:52;21.30;;;13.30;;
41502;SDS011;27237;42.554;22.966;2022-07-29T01:42:58;18.60;;;12.63;;
41502;SDS011;27237;42.554;22.966;2022-07-29T01:48:10;15.85;;;11.90;;
41502;SDS011;27237;42.554;22.966;2022-07-29T01:51:03;24.00;;;11.38;;
41502;SDS011;27237;42.554;22.966;2022-07-29T01:53:35;20.50;;;12.10;;
41502;SDS011;27237;42.554;22.966;2022-07-29T01:56:07;17.77;;;11.02;;
41502;SDS011;27237;42.554;22.966;2022-07-29T01:58:35;14.50;;;9.60;;
41502;SDS011;27237;42.554;22.966;2022-07-29T02:01:05;16.05;;;9.70;;
41502;SDS011;27237;42.554;22.966;2022-07-29T02:03:33;19.65;;;9.90;;
41502;SDS011;27237;42.554;22.966;2022-07-29T02:06:01;16.85;;;9.65;;
41502;SDS011;27237;42.554;22.966;2022-07-29T02:08:28;15.43;;;9.85;;
41502;SDS011;27237;42.554;22.966;2022-07-29T02:10:57;22.20;;;10.77;;
41502;SDS011;27237;42.554;22.966;2022-07-29T02:13:24;24.75;;;11.45;;
41502;SDS011;27237;42.554;22.966;2022-07-29T02:15:52;25.35;;;11.88;;
41502;SDS011;27237;42.554;22.966;2022-07-29T02:18:20;26.85;;;12.45;;
41502;SDS011;27237;42.554;22.966;2022-07-29T02:20:49;23.15;;;13.32;;
41502;SDS011;27237;42.554;22.966;2022-07-29T02:23:18;21.77;;;13.55;;
41502;SDS011;27237;42.554;22.966;2022-07-29T02:25:51;21.23;;;12.32;;
41502;SDS011;27237;42.554;22.966;2022-07-29T02:28:19;28.25;;;14.13;;
41502;SDS011;27237;42.554;22.966;2022-07-29T02:30:47;16.77;;;13.07;;
41502;SDS011;27237;42.554;22.966;2022-07-29T02:33:17;18.15;;;13.63;;
41502;SDS011;27237;42.554;22.966;2022-07-29T02:35:44;34.35;;;13.05;;
41502;SDS011;27237;42.554;22.966;2022-07-29T02:38:16;28.33;;;12.48;;
41502;SDS011;27237;42.554;22.966;2022-07-29T02:41:03;18.48;;;12.25;;
41502;SDS011;27237;42.554;22.966;2022-07-29T02:43:32;21.80;;;14.00;;
41502;SDS011;27237;42.554;22.966;2022-07-29T02:46:00;21.13;;;12.70;;
41502;SDS011;27237;42.554;22.966;2022-07-29T02:48:37;24.55;;;11.98;;
41502;SDS011;27237;42.554;22.966;2022-07-29T02:51:07;23.92;;;11.23;;
41502;SDS011;27237;42.554;22.966;2022-07-29T02:53:43;22.17;;;11.13;;
41502;SDS011;27237;42.554;22.966;2022-07-29T02:56:13;18.90;;;11.70;;
41502;SDS011;27237;42.554;22.966;2022-07-29T02:58:42;19.73;;;12.90;;
41502;SDS011;27237;42.554;22.966;2022-07-29T03:01:18;22.45;;;13.23;;
41502;SDS011;27237;42.554;22.966;2022-07-29T03:03:46;27.27;;;13.07;;
41502;SDS011;27237;42.554;22.966;2022-07-29T03:06:14;17.45;;;13.18;;
41502;SDS011;27237;42.554;22.966;2022-07-29T03:08:42;20.30;;;11.75;;
41502;SDS011;27237;42.554;22.966;2022-07-29T03:11:09;24.05;;;11.93;;
41502;SDS011;27237;42.554;22.966;2022-07-29T03:13:36;21.48;;;13.82;;
41502;SDS011;27237;42.554;22.966;2022-07-29T03:16:02;23.85;;;15.68;;
41502;SDS011;27237;42.554;22.966;2022-07-29T03:18:29;22.85;;;14.35;;
41502;SDS011;27237;42.554;22.966;2022-07-29T03:20:55;21.25;;;14.63;;
41502;SDS011;27237;42.554;22.966;2022-07-29T03:23:21;22.60;;;14.82;;
41502;SDS011;27237;42.554;22.966;2022-07-29T03:25:51;28.15;;;14.88;;
41502;SDS011;27237;42.554;22.966;2022-07-29T03:28:17;24.08;;;15.23;;
41502;SDS011;27237;42.554;22.966;2022-07-29T03:30:43;20.48;;;15.20;;
41502;SDS011;27237;42.554;22.966;2022-07-29T03:33:09;21.77;;;15.73;;
41502;SDS011;27237;42.554;22.966;2022-07-29T03:35:35;27.48;;;14.13;;
41502;SDS011;27237;42.554;22.966;2022-07-29T03:38:00;26.80;;;14.63;;
41502;SDS011;27237;42.554;22.966;2022-07-29T03:40:27;23.10;;;14.93;;
41502;SDS011;27237;42.554;22.966;2022-07-29T03:42:55;21.63;;;14.25;;
41502;SDS011;27237;42.554;22.966;2022-07-29T03:45:22;23.25;;;14.77;;
41502;SDS011;27237;42.554;22.966;2022-07-29T03:47:50;26.75;;;14.25;;
41502;SDS011;27237;42.554;22.966;2022-07-29T03:50:20;17.83;;;14.60;;
41502;SDS011;27237;42.554;22.966;2022-07-29T03:52:46;18.80;;;13.57;;
41502;SDS011;27237;42.554;22.966;2022-07-29T03:55:13;34.58;;;15.52;;
41502;SDS011;27237;42.554;22.966;2022-07-29T03:57:39;26.02;;;15.98;;
41502;SDS011;27237;42.554;22.966;2022-07-29T04:00:05;23.05;;;14.43;;
41502;SDS011;27237;42.554;22.966;2022-07-29T04:02:32;22.52;;;15.25;;
41502;SDS011;27237;42.554;22.966;2022-07-29T04:04:58;29.05;;;14.57;;
41502;SDS011;27237;42.554;22.966;2022-07-29T04:07:23;29.83;;;15.95;;
41502;SDS011;27237;42.554;22.966;2022-07-29T04:09:49;32.60;;;15.40;;
41502;SDS011;27237;42.554;22.966;2022-07-29T04:12:14;27.80;;;13.90;;
41502;SDS011;27237;42.554;22.966;2022-07-29T04:14:40;25.75;;;14.25;;
41502;SDS011;27237;42.554;22.966;2022-07-29T04:17:05;24.45;;;15.35;;
41502;SDS011;27237;42.554;22.966;2022-07-29T04:19:31;24.73;;;14.50;;
41502;SDS011;27237;42.554;22.966;2022-07-29T04:21:57;22.63;;;14.57;;
41502;SDS011;27237;42.554;22.966;2022-07-29T04:24:24;24.02;;;14.90;;
41502;SDS011;27237;42.554;22.966;2022-07-29T04:26:50;22.20;;;14.68;;
41502;SDS011;27237;42.554;22.966;2022-07-29T04:29:15;28.02;;;14.10;;
41502;SDS011;27237;42.554;22.966;2022-07-29T04:31:41;25.00;;;14.38;;
41502;SDS011;27237;42.554;22.966;2022-07-29T04:34:07;25.13;;;13.77;;
41502;SDS011;27237;42.554;22.966;2022-07-29T04:36:34;33.67;;;15.57;;
41502;SDS011;27237;42.554;22.966;2022-07-29T04:38:59;27.33;;;16.23;;
41502;SDS011;27237;42.554;22.966;2022-07-29T04:41:26;29.55;;;15.07;;
41502;SDS011;27237;42.554;22.966;2022-07-29T04:43:52;36.30;;;17.58;;
41502;SDS011;27237;42.554;22.966;2022-07-29T04:46:17;32.88;;;16.40;;
41502;SDS011;27237;42.554;22.966;2022-07-29T04:48:44;24.52;;;16.95;;
41502;SDS011;27237;42.554;22.966;2022-07-29T04:51:11;25.15;;;16.85;;
41502;SDS011;27237;42.554;22.966;2022-07-29T04:53:36;29.23;;;16.92;;
41502;SDS011;27237;42.554;22.966;2022-07-29T04:56:02;29.70;;;16.77;;
41502;SDS011;27237;42.554;22.966;2022-07-29T04:58:27;31.50;;;17.58;;
41502;SDS011;27237;42.554;22.966;2022-07-29T05:00:53;30.73;;;15.98;;
41502;SDS011;27237;42.554;22.966;2022-07-29T05:03:18;25.38;;;15.85;;
41502;SDS011;27237;42.554;22.966;2022-07-29T05:05:44;28.33;;;16.48;;
41502;SDS011;27237;42.554;22.966;2022-07-29T05:08:09;32.70;;;16.45;;
41502;SDS011;27237;42.554;22.966;2022-07-29T05:10:34;27.08;;;16.83;;
41502;SDS011;27237;42.554;22.966;2022-07-29T05:13:03;25.55;;;17.23;;
41502;SDS011;27237;42.554;22.966;2022-07-29T05:15:30;26.75;;;17.05;;
41502;SDS011;27237;42.554;22.966;2022-07-29T05:17:56;30.40;;;17.95;;
41502;SDS011;27237;42.554;22.966;2022-07-29T05:20:22;40.83;;;17.73;;
41502;SDS011;27237;42.554;22.966;2022-07-29T05:22:51;29.85;;;16.35;;
41502;SDS011;27237;42.554;22.966;2022-07-29T05:25:17;28.60;;;16.98;;
41502;SDS011;27237;42.554;22.966;2022-07-29T05:27:42;38.22;;;17.10;;
41502;SDS011;27237;42.554;22.966;2022-07-29T05:30:08;27.48;;;16.92;;
41502;SDS011;27237;42.554;22.966;2022-07-29T05:32:34;32.33;;;17.55;;
41502;SDS011;27237;42.554;22.966;2022-07-29T05:34:59;25.15;;;17.83;;
41502;SDS011;27237;42.554;22.966;2022-07-29T05:37:25;32.67;;;18.05;;
41502;SDS011;27237;42.554;22.966;2022-07-29T05:39:50;30.63;;;16.67;;
41502;SDS011;27237;42.554;22.966;2022-07-29T05:42:16;25.98;;;18.48;;
41502;SDS011;27237;42.554;22.966;2022-07-29T05:44:41;29.67;;;18.58;;
41502;SDS011;27237;42.554;22.966;2022-07-29T05:47:07;42.90;;;20.25;;
41502;SDS011;27237;42.554;22.966;2022-07-29T05:49:32;29.33;;;16.95;;
41502;SDS011;27237;42.554;22.966;2022-07-29T05:51:58;28.52;;;16.15;;
41502;SDS011;27237;42.554;22.966;2022-07-29T05:54:23;31.25;;;16.33;;
41502;SDS011;27237;42.554;22.966;2022-07-29T05:56:49;38.20;;;18.20;;
41502;SDS011;27237;42.554;22.966;2022-07-29T05:59:14;29.75;;;17.75;;
41502;SDS011;27237;42.554;22.966;2022-07-29T06:01:40;38.03;;;17.50;;
41502;SDS011;27237;42.554;22.966;2022-07-29T06:04:06;28.92;;;16.58;;
41502;SDS011;27237;42.554;22.966;2022-07-29T06:06:32;37.13;;;17.65;;
41502;SDS011;27237;42.554;22.966;2022-07-29T06:08:58;31.60;;;18.23;;
41502;SDS011;27237;42.554;22.966;2022-07-29T06:11:24;40.95;;;19.17;;
41502;SDS011;27237;42.554;22.966;2022-07-29T06:13:49;31.48;;;18.85;;
41502;SDS011;27237;42.554;22.966;2022-07-29T06:16:15;33.90;;;18.33;;
41502;SDS011;27237;42.554;22.966;2022-07-29T06:18:40;33.38;;;18.73;;
41502;SDS011;27237;42.554;22.966;2022-07-29T06:21:09;32.67;;;17.33;;
41502;SDS011;27237;42.554;22.966;2022-07-29T06:23:35;39.22;;;18.83;;
41502;SDS011;27237;42.554;22.966;2022-07-29T06:26:04;51.30;;;19.50;;
41502;SDS011;27237;42.554;22.966;2022-07-29T06:28:30;40.42;;;19.80;;
41502;SDS011;27237;42.554;22.966;2022-07-29T06:30:56;38.50;;;18.00;;
41502;SDS011;27237;42.554;22.966;2022-07-29T06:33:21;30.48;;;18.75;;
41502;SDS011;27237;42.554;22.966;2022-07-29T06:35:47;37.90;;;18.73;;
41502;SDS011;27237;42.554;22.966;2022-07-29T06:38:13;42.50;;;17.98;;
41502;SDS011;27237;42.554;22.966;2022-07-29T06:40:42;37.90;;;17.73;;
41502;SDS011;27237;42.554;22.966;2022-07-29T06:43:31;29.90;;;18.02;;
41502;SDS011;27237;42.554;22.966;2022-07-29T06:46:07;30.00;;;16.92;;
41502;SDS011;27237;42.554;22.966;2022-07-29T06:48:34;30.90;;;17.90;;
41502;SDS011;27237;42.554;22.966;2022-07-29T06:51:01;41.00;;;18.15;;
41502;SDS011;27237;42.554;22.966;2022-07-29T06:53:27;34.22;;;17.25;;
41502;SDS011;27237;42.554;22.966;2022-07-29T06:55:53;27.35;;;17.90;;
41502;SDS011;27237;42.554;22.966;2022-07-29T06:58:19;33.58;;;17.02;;
41502;SDS011;27237;42.554;22.966;2022-07-29T07:00:46;24.40;;;17.15;;
41502;SDS011;27237;42.554;22.966;2022-07-29T07:03:12;27.92;;;18.25;;
41502;SDS011;27237;42.554;22.966;2022-07-29T07:05:38;34.53;;;18.67;;
41502;SDS011;27237;42.554;22.966;2022-07-29T07:08:04;28.52;;;17.88;;
41502;SDS011;27237;42.554;22.966;2022-07-29T07:10:30;30.35;;;15.80;;
41502;SDS011;27237;42.554;22.966;2022-07-29T07:12:55;32.80;;;15.68;;
41502;SDS011;27237;42.554;22.966;2022-07-29T07:15:21;24.27;;;14.30;;
41502;SDS011;27237;42.554;22.966;2022-07-29T07:17:49;27.02;;;14.90;;
41502;SDS011;27237;42.554;22.966;2022-07-29T07:20:15;31.13;;;13.98;;
41502;SDS011;27237;42.554;22.966;2022-07-29T07:22:41;28.73;;;14.55;;
41502;SDS011;27237;42.554;22.966;2022-07-29T07:25:07;26.38;;;13.30;;
41502;SDS011;27237;42.554;22.966;2022-07-29T07:27:33;27.05;;;12.77;;
41502;SDS011;27237;42.554;22.966;2022-07-29T07:29:59;18.73;;;11.68;;
41502;SDS011;27237;42.554;22.966;2022-07-29T07:32:25;20.15;;;11.70;;
41502;SDS011;27237;42.554;22.966;2022-07-29T07:34:51;18.42;;;9.80;;
41502;SDS011;27237;42.554;22.966;2022-07-29T07:37:17;15.32;;;9.55;;
41502;SDS011;27237;42.554;22.966;2022-07-29T07:39:45;17.35;;;9.73;;
41502;SDS011;27237;42.554;22.966;2022-07-29T07:42:11;24.77;;;10.77;;
41502;SDS011;27237;42.554;22.966;2022-07-29T07:44:38;18.65;;;11.20;;
41502;SDS011;27237;42.554;22.966;2022-07-29T07:47:04;23.38;;;10.80;;
41502;SDS011;27237;42.554;22.966;2022-07-29T07:49:30;37.95;;;9.68;;
41502;SDS011;27237;42.554;22.966;2022-07-29T07:51:55;17.40;;;8.60;;
41502;SDS011;27237;42.554;22.966;2022-07-29T07:54:21;14.35;;;9.20;;
41502;SDS011;27237;42.554;22.966;2022-07-29T07:56:46;18.08;;;9.30;;
41502;SDS011;27237;42.554;22.966;2022-07-29T07:59:14;10.95;;;7.65;;
41502;SDS011;27237;42.554;22.966;2022-07-29T08:01:40;20.83;;;9.63;;
41502;SDS011;27237;42.554;22.966;2022-07-29T08:04:05;19.88;;;9.50;;
41502;SDS011;27237;42.554;22.966;2022-07-29T08:06:32;15.90;;;8.00;;
41502;SDS011;27237;42.554;22.966;2022-07-29T08:08:59;13.60;;;7.65;;
41502;SDS011;27237;42.554;22.966;2022-07-29T08:11:25;12.95;;;7.70;;
41502;SDS011;27237;42.554;22.966;2022-07-29T08:13:50;13.32;;;7.35;;
41502;SDS011;27237;42.554;22.966;2022-07-29T08:16:17;16.58;;;7.25;;
41502;SDS011;27237;42.554;22.966;2022-07-29T08:18:43;19.63;;;7.63;;
41502;SDS011;27237;42.554;22.966;2022-07-29T08:21:09;17.83;;;7.20;;
41502;SDS011;27237;42.554;22.966;2022-07-29T08:23:35;13.23;;;7.63;;
41502;SDS011;27237;42.554;22.966;2022-07-29T08:26:07;13.80;;;7.40;;
41502;SDS011;27237;42.554;22.966;2022-07-29T08:28:38;9.15;;;7.13;;
41502;SDS011;27237;42.554;22.966;2022-07-29T08:31:06;14.70;;;7.45;;
41502;SDS011;27237;42.554;22.966;2022-07-29T08:33:32;16.77;;;6.90;;
41502;SDS011;27237;42.554;22.966;2022-07-29T08:35:57;10.13;;;7.47;;
41502;SDS011;27237;42.554;22.966;2022-07-29T08:38:23;17.98;;;8.20;;
41502;SDS011;27237;42.554;22.966;2022-07-29T08:40:51;12.73;;;7.18;;
41502;SDS011;27237;42.554;22.966;2022-07-29T08:43:17;10.68;;;7.18;;
41502;SDS011;27237;42.554;22.966;2022-07-29T08:45:48;10.48;;;7.10;;
41502;SDS011;27237;42.554;22.966;2022-07-29T08:48:16;8.80;;;6.85;;
41502;SDS011;27237;42.554;22.966;2022-07-29T08:50:44;10.15;;;7.47;;
41502;SDS011;27237;42.554;22.966;2022-07-29T08:53:11;8.63;;;7.57;;
41502;SDS011;27237;42.554;22.966;2022-07-29T08:55:39;12.43;;;7.55;;
41502;SDS011;27237;42.554;22.966;2022-07-29T08:58:08;10.02;;;7.35;;
41502;SDS011;27237;42.554;22.966;2022-07-29T09:00:35;20.85;;;8.35;;
41502;SDS011;27237;42.554;22.966;2022-07-29T09:03:04;18.52;;;8.40;;
41502;SDS011;27237;42.554;22.966;2022-07-29T09:05:31;13.43;;;8.55;;
41502;SDS011;27237;42.554;22.966;2022-07-29T09:07:57;13.93;;;8.75;;
41502;SDS011;27237;42.554;22.966;2022-07-29T09:10:24;9.63;;;7.47;;
41502;SDS011;27237;42.554;22.966;2022-07-29T09:12:49;13.63;;;7.80;;
41502;SDS011;27237;42.554;22.966;2022-07-29T09:15:15;11.90;;;7.13;;
41502;SDS011;27237;42.554;22.966;2022-07-29T09:17:42;12.32;;;6.78;;
41502;SDS011;27237;42.554;22.966;2022-07-29T09:20:17;12.90;;;7.60;;
41502;SDS011;27237;42.554;22.966;2022-07-29T09:22:44;12.48;;;7.72;;
41502;SDS011;27237;42.554;22.966;2022-07-29T09:25:35;15.30;;;8.05;;
41502;SDS011;27237;42.554;22.966;2022-07-29T09:28:07;11.25;;;8.43;;
41502;SDS011;27237;42.554;22.966;2022-07-29T09:30:34;12.73;;;8.25;;
41502;SDS011;27237;42.554;22.966;2022-07-29T09:33:00;16.13;;;10.30;;
41502;SDS011;27237;42.554;22.966;2022-07-29T09:35:30;13.70;;;8.57;;
41502;SDS011;27237;42.554;22.966;2022-07-29T09:37:55;9.43;;;7.70;;
41502;SDS011;27237;42.554;22.966;2022-07-29T09:40:25;12.25;;;8.77;;
41502;SDS011;27237;42.554;22.966;2022-07-29T09:42:52;10.77;;;8.30;;
41502;SDS011;27237;42.554;22.966;2022-07-29T09:47:53;12.02;;;7.65;;
41502;SDS011;27237;42.554;22.966;2022-07-29T09:50:19;18.75;;;10.43;;
41502;SDS011;27237;42.554;22.966;2022-07-29T09:55:15;12.98;;;9.45;;
41502;SDS011;27237;42.554;22.966;2022-07-29T09:57:41;15.50;;;9.93;;
41502;SDS011;27237;42.554;22.966;2022-07-29T10:02:34;13.73;;;10.15;;
41502;SDS011;27237;42.554;22.966;2022-07-29T10:05:01;16.58;;;9.75;;
41502;SDS011;27237;42.554;22.966;2022-07-29T10:12:51;20.13;;;10.02;;
41502;SDS011;27237;42.554;22.966;2022-07-29T10:15:19;12.57;;;8.52;;
41502;SDS011;27237;42.554;22.966;2022-07-29T10:17:47;12.07;;;8.93;;
41502;SDS011;27237;42.554;22.966;2022-07-29T10:20:13;14.18;;;8.82;;
41502;SDS011;27237;42.554;22.966;2022-07-29T10:22:40;17.67;;;9.57;;
41502;SDS011;27237;42.554;22.966;2022-07-29T10:25:06;15.20;;;8.38;;
41502;SDS011;27237;42.554;22.966;2022-07-29T10:27:34;16.98;;;9.20;;
41502;SDS011;27237;42.554;22.966;2022-07-29T10:30:00;13.77;;;8.43;;
41502;SDS011;27237;42.554;22.966;2022-07-29T10:43:51;12.82;;;7.28;;
41502;SDS011;27237;42.554;22.966;2022-07-29T10:46:19;10.10;;;7.78;;
41502;SDS011;27237;42.554;22.966;2022-07-29T10:52:01;16.10;;;7.07;;
41502;SDS011;27237;42.554;22.966;2022-07-29T10:59:38;15.32;;;7.65;;
41502;SDS011;27237;42.554;22.966;2022-07-29T11:07:24;16.05;;;7.85;;
41502;SDS011;27237;42.554;22.966;2022-07-29T11:15:11;11.23;;;7.38;;
41502;SDS011;27237;42.554;22.966;2022-07-29T11:28:34;21.50;;;7.97;;
41502;SDS011;27237;42.554;22.966;2022-07-29T11:31:04;13.85;;;7.15;;
41502;SDS011;27237;42.554;22.966;2022-07-29T11:33:34;14.95;;;7.25;;
41502;SDS011;27237;42.554;22.966;2022-07-29T11:36:13;11.48;;;7.18;;
41502;SDS011;27237;42.554;22.966;2022-07-29T11:49:21;13.00;;;7.25;;
41502;SDS011;27237;42.554;22.966;2022-07-29T11:51:52;13.98;;;7.45;;
41502;SDS011;27237;42.554;22.966;2022-07-29T11:54:21;8.95;;;7.07;;
41502;SDS011;27237;42.554;22.966;2022-07-29T11:56:50;7.88;;;6.40;;
41502;SDS011;27237;42.554;22.966;2022-07-29T11:59:17;9.25;;;6.57;;
41502;SDS011;27237;42.554;22.966;2022-07-29T12:01:56;12.35;;;6.45;;
41502;SDS011;27237;42.554;22.966;2022-07-29T12:04:24;10.25;;;6.85;;
41502;SDS011;27237;42.554;22.966;2022-07-29T12:06:51;10.85;;;6.40;;
41502;SDS011;27237;42.554;22.966;2022-07-29T12:09:18;10.07;;;5.95;;
41502;SDS011;27237;42.554;22.966;2022-07-29T12:11:43;10.70;;;5.88;;
41502;SDS011;27237;42.554;22.966;2022-07-29T12:14:26;9.20;;;5.95;;
41502;SDS011;27237;42.554;22.966;2022-07-29T12:16:56;9.50;;;5.45;;
41502;SDS011;27237;42.554;22.966;2022-07-29T12:19:22;10.00;;;7.03;;
41502;SDS011;27237;42.554;22.966;2022-07-29T12:21:52;10.43;;;7.40;;
41502;SDS011;27237;42.554;22.966;2022-07-29T12:24:19;13.23;;;7.18;;
41502;SDS011;27237;42.554;22.966;2022-07-29T12:26:58;10.15;;;6.35;;
41502;SDS011;27237;42.554;22.966;2022-07-29T12:29:24;13.32;;;6.28;;
41502;SDS011;27237;42.554;22.966;2022-07-29T12:31:54;8.98;;;6.95;;
41502;SDS011;27237;42.554;22.966;2022-07-29T12:34:22;14.38;;;6.88;;
41502;SDS011;27237;42.554;22.966;2022-07-29T12:36:52;12.32;;;7.28;;
41502;SDS011;27237;42.554;22.966;2022-07-29T12:39:17;7.45;;;6.22;;
41502;SDS011;27237;42.554;22.966;2022-07-29T12:41:43;9.32;;;6.60;;
41502;SDS011;27237;42.554;22.966;2022-07-29T12:44:10;13.30;;;6.60;;
41502;SDS011;27237;42.554;22.966;2022-07-29T12:46:35;9.73;;;7.35;;
41502;SDS011;27237;42.554;22.966;2022-07-29T12:49:01;16.85;;;5.88;;
41502;SDS011;27237;42.554;22.966;2022-07-29T12:51:28;7.07;;;5.30;;
41502;SDS011;27237;42.554;22.966;2022-07-29T12:54:02;10.68;;;6.07;;
41502;SDS011;27237;42.554;22.966;2022-07-29T12:56:28;13.55;;;6.18;;
41502;SDS011;27237;42.554;22.966;2022-07-29T12:58:53;8.07;;;6.35;;
41502;SDS011;27237;42.554;22.966;2022-07-29T13:01:19;8.55;;;6.28;;
41502;SDS011;27237;42.554;22.966;2022-07-29T13:03:52;7.90;;;5.75;;
41502;SDS011;27237;42.554;22.966;2022-07-29T13:11:46;6.10;;;5.45;;
41502;SDS011;27237;42.554;22.966;2022-07-29T13:14:20;7.90;;;5.32;;
41502;SDS011;27237;42.554;22.966;2022-07-29T13:19:50;13.23;;;4.93;;
41502;SDS011;27237;42.554;22.966;2022-07-29T13:22:20;10.82;;;4.55;;
41502;SDS011;27237;42.554;22.966;2022-07-29T13:24:51;9.48;;;4.45;;
41502;SDS011;27237;42.554;22.966;2022-07-29T13:27:20;6.20;;;4.72;;
41502;SDS011;27237;42.554;22.966;2022-07-29T13:29:48;6.15;;;4.78;;
41502;SDS011;27237;42.554;22.966;2022-07-29T13:32:16;6.38;;;4.13;;
41502;SDS011;27237;42.554;22.966;2022-07-29T13:34:41;7.65;;;5.55;;
41502;SDS011;27237;42.554;22.966;2022-07-29T13:37:07;8.75;;;5.57;;
41502;SDS011;27237;42.554;22.966;2022-07-29T13:39:32;8.05;;;5.90;;
41502;SDS011;27237;42.554;22.966;2022-07-29T13:41:58;14.98;;;6.22;;
41502;SDS011;27237;42.554;22.966;2022-07-29T13:44:24;37.38;;;6.00;;
41502;SDS011;27237;42.554;22.966;2022-07-29T13:46:49;7.35;;;5.32;;
41502;SDS011;27237;42.554;22.966;2022-07-29T13:49:15;13.65;;;5.32;;
41502;SDS011;27237;42.554;22.966;2022-07-29T13:51:40;6.45;;;4.40;;
41502;SDS011;27237;42.554;22.966;2022-07-29T13:54:05;7.22;;;5.25;;
41502;SDS011;27237;42.554;22.966;2022-07-29T13:56:31;10.10;;;5.72;;
41502;SDS011;27237;42.554;22.966;2022-07-29T13:58:56;9.63;;;5.45;;
41502;SDS011;27237;42.554;22.966;2022-07-29T14:01:22;10.48;;;5.35;;
41502;SDS011;27237;42.554;22.966;2022-07-29T14:03:48;6.93;;;5.18;;
41502;SDS011;27237;42.554;22.966;2022-07-29T14:06:13;7.97;;;4.85;;
41502;SDS011;27237;42.554;22.966;2022-07-29T14:08:39;5.70;;;5.10;;
41502;SDS011;27237;42.554;22.966;2022-07-29T14:11:05;11.40;;;4.97;;
41502;SDS011;27237;42.554;22.966;2022-07-29T14:13:30;11.23;;;5.28;;
41502;SDS011;27237;42.554;22.966;2022-07-29T14:15:56;9.13;;;5.35;;
41502;SDS011;27237;42.554;22.966;2022-07-29T14:18:21;7.22;;;5.55;;
41502;SDS011;27237;42.554;22.966;2022-07-29T14:20:47;15.77;;;5.22;;
41502;SDS011;27237;42.554;22.966;2022-07-29T14:23:13;5.05;;;4.32;;
41502;SDS011;27237;42.554;22.966;2022-07-29T14:25:38;8.55;;;5.40;;
41502;SDS011;27237;42.554;22.966;2022-07-29T14:28:04;10.13;;;6.50;;
41502;SDS011;27237;42.554;22.966;2022-07-29T14:30:29;8.32;;;5.15;;
41502;SDS011;27237;42.554;22.966;2022-07-29T14:32:55;15.38;;;5.78;;
41502;SDS011;27237;42.554;22.966;2022-07-29T14:35:20;9.57;;;5.18;;
41502;SDS011;27237;42.554;22.966;2022-07-29T14:37:45;8.82;;;5.03;;
41502;SDS011;27237;42.554;22.966;2022-07-29T14:40:11;14.80;;;4.68;;
41502;SDS011;27237;42.554;22.966;2022-07-29T14:42:36;9.70;;;4.43;;
41502;SDS011;27237;42.554;22.966;2022-07-29T14:45:03;6.38;;;4.93;;
41502;SDS011;27237;42.554;22.966;2022-07-29T14:47:30;7.30;;;4.90;;
41502;SDS011;27237;42.554;22.966;2022-07-29T14:49:56;10.68;;;5.38;;
41502;SDS011;27237;42.554;22.966;2022-07-29T14:52:21;8.20;;;5.00;;
41502;SDS011;27237;42.554;22.966;2022-07-29T14:54:47;5.55;;;4.97;;
41502;SDS011;27237;42.554;22.966;2022-07-29T14:57:12;7.03;;;5.15;;
41502;SDS011;27237;42.554;22.966;2022-07-29T14:59:37;6.30;;;4.80;;
41502;SDS011;27237;42.554;22.966;2022-07-29T15:02:03;6.90;;;5.38;;
41502;SDS011;27237;42.554;22.966;2022-07-29T15:04:28;9.13;;;5.00;;
41502;SDS011;27237;42.554;22.966;2022-07-29T15:06:54;8.20;;;5.13;;
41502;SDS011;27237;42.554;22.966;2022-07-29T15:09:19;7.85;;;4.53;;
41502;SDS011;27237;42.554;22.966;2022-07-29T15:11:45;11.65;;;4.43;;
41502;SDS011;27237;42.554;22.966;2022-07-29T15:14:10;5.82;;;5.15;;
41502;SDS011;27237;42.554;22.966;2022-07-29T15:16:36;7.95;;;5.05;;
41502;SDS011;27237;42.554;22.966;2022-07-29T15:19:03;9.57;;;4.78;;
41502;SDS011;27237;42.554;22.966;2022-07-29T15:21:29;7.90;;;5.28;;
41502;SDS011;27237;42.554;22.966;2022-07-29T15:23:54;9.02;;;4.72;;
41502;SDS011;27237;42.554;22.966;2022-07-29T15:26:20;5.47;;;4.68;;
41502;SDS011;27237;42.554;22.966;2022-07-29T15:28:45;6.93;;;4.60;;
41502;SDS011;27237;42.554;22.966;2022-07-29T15:31:11;5.50;;;4.53;;
41502;SDS011;27237;42.554;22.966;2022-07-29T15:33:36;7.35;;;4.43;;
41502;SDS011;27237;42.554;22.966;2022-07-29T15:36:02;10.98;;;4.97;;
41502;SDS011;27237;42.554;22.966;2022-07-29T15:38:29;8.85;;;5.15;;
41502;SDS011;27237;42.554;22.966;2022-07-29T15:40:55;14.23;;;5.95;;
41502;SDS011;27237;42.554;22.966;2022-07-29T15:43:20;9.27;;;6.20;;
41502;SDS011;27237;42.554;22.966;2022-07-29T15:45:46;5.65;;;4.70;;
41502;SDS011;27237;42.554;22.966;2022-07-29T15:48:30;10.57;;;4.78;;
41502;SDS011;27237;42.554;22.966;2022-07-29T15:50:56;7.95;;;4.95;;
41502;SDS011;27237;42.554;22.966;2022-07-29T15:53:23;10.88;;;5.15;;